EDT,Max TemperatureF,Mean TemperatureF,Min TemperatureF,Max Dew PointF,MeanDew PointF,Min DewpointF,Max Humidity, Mean Humidity, Min Humidity, Max Sea Level PressureIn, Mean Sea Level PressureIn, Min Sea Level PressureIn, Max VisibilityMiles, Mean VisibilityMiles, Min VisibilityMiles, Max Wind SpeedMPH, Mean Wind SpeedMPH, Max Gust SpeedMPH,PrecipitationIn, CloudCover, Events, WindDirDegrees
2012-10-1,66,60,51,55,50,47,92,71,59,29.98,29.84,29.78,10,10,10,16,8,28,0.00,0,,254
2012-10-2,69,60,51,61,57,50,100,89,61,30.06,30.03,29.97,10,8,4,7,1,,0.09,6,Rain,74
2012-10-3,73,66,60,68,64,61,100,97,84,30.14,30.08,30.01,10,3,0,7,4,,0.02,8,Fog-Rain,43
2012-10-4,71,66,62,64,63,62,100,95,78,30.15,30.10,30.04,10,6,1,7,4,,0.01,8,Rain,19
2012-10-5,73,66,59,65,62,58,100,93,64,30.06,30.02,29.95,10,5,0,9,1,,0.00,4,Fog,253
2012-10-6,73,63,51,66,58,46,100,87,69,29.97,29.87,29.77,10,7,1,16,4,26,0.02,2,Rain,238
2012-10-7,59,50,42,49,45,40,97,84,51,30.09,30.05,29.99,10,10,4,6,1,,0.05,4,Rain,326
2012-10-8,55,48,41,48,44,40,100,82,59,30.30,30.22,30.10,10,10,4,8,2,,0.01,2,,332
2012-10-9,59,52,48,52,50,45,100,87,77,30.27,30.19,30.12,10,9,3,12,6,20,0.00,8,Rain,39
2012-10-10,66,58,52,63,56,47,100,96,69,30.10,29.95,29.80,10,5,1,14,6,20,0.18,8,Rain,61
2012-10-11,60,52,45,41,38,34,80,58,39,30.17,30.08,29.89,10,10,10,15,7,23,0.00,0,,275
2012-10-12,57,49,39,46,38,26,86,64,45,30.40,30.15,30.05,10,10,10,13,5,20,0.00,1,Rain,308
2012-10-13,51,40,30,35,27,23,88,58,35,30.51,30.44,30.36,10,10,10,13,4,17,0.00,0,,271
2012-10-14,66,60,54,60,52,41,90,72,62,30.31,30.14,30.00,10,10,10,17,13,28,0.00,4,Rain,224
2012-10-15,68,66,63,64,62,59,100,90,78,29.98,29.75,29.62,10,8,2,16,13,28,0.08,7,Rain,209
2012-10-16,62,54,43,61,42,34,96,66,42,29.89,29.72,29.60,10,10,10,15,7,30,0.00,2,Rain,308
2012-10-17,57,44,34,44,38,32,93,76,42,30.03,29.97,29.91,10,10,10,9,3,,0.00,0,,287
2012-10-18,63,50,37,57,49,36,100,85,64,30.10,30.07,30.03,10,10,7,9,3,,0.00,3,,121
2012-10-19,66,63,60,65,62,57,100,93,84,30.03,29.86,29.73,10,7,2,15,9,28,0.16,8,Rain,126
2012-10-20,69,63,55,65,61,44,100,89,58,29.80,29.71,29.67,10,7,2,20,9,29,0.56,5,Rain-Thunderstorm,222
2012-10-21,64,55,46,43,40,37,77,56,37,29.96,29.90,29.82,10,10,10,9,4,20,0.00,1,,276
2012-10-22,66,58,51,43,41,39,66,55,40,30.04,29.98,29.95,10,10,10,13,4,24,0.00,0,,287
2012-10-23,66,54,45,53,47,41,97,75,48,30.12,30.09,30.04,10,9,5,7,2,,0.04,5,Rain,263
2012-10-24,55,53,51,53,47,44,97,81,67,30.23,30.16,30.12,10,10,5,7,2,,0.01,8,Rain,36
2012-10-25,61,53,45,47,45,43,93,79,62,30.30,30.27,30.22,10,10,10,7,2,,0.00,4,,68
2012-10-26,64,53,43,54,49,42,97,83,54,30.26,30.20,30.14,10,10,10,7,1,,0.00,4,,166
2012-10-27,66,59,52,55,51,45,93,77,58,30.12,30.03,29.96,10,10,10,13,3,16,0.00,4,,79
2012-10-28,61,56,53,52,50,47,90,83,69,29.95,29.83,29.66,10,10,6,17,10,30,0.00,7,Rain,42
2012-10-29,64,58,53,63,56,51,100,93,84,29.67,29.28,28.91,9,4,1,41,18,61,0.28,8,Rain,49
2012-10-30,66,62,57,57,56,55,100,84,68,29.53,29.52,29.49,10,9,8,13,9,21,0.01,4,Rain,117
2012-10-31,57,54,51,57,48,39,100,80,61,29.59,29.53,29.48,10,10,5,16,7,26,0.03,8,Rain,216